sensor_id;sensor_type;location;lat;lon;timestamp;P1;durP1;ratioP1;P2;durP2;ratioP2
35971;SDS011;22052;0.000;0.000;2022-12-07T00:01:07;9.82;;;2.85;;
35971;SDS011;22052;0.000;0.000;2022-12-07T00:03:34;12.07;;;3.17;;
35971;SDS011;22052;0.000;0.000;2022-12-07T00:06:00;6.53;;;2.75;;
35971;SDS011;22052;0.000;0.000;2022-12-07T00:08:27;7.20;;;2.92;;
35971;SDS011;22052;0.000;0.000;2022-12-07T00:10:53;9.32;;;2.90;;
35971;SDS011;22052;0.000;0.000;2022-12-07T00:13:19;13.27;;;3.03;;
35971;SDS011;22052;0.000;0.000;2022-12-07T00:15:45;9.40;;;3.30;;
35971;SDS011;22052;0.000;0.000;2022-12-07T00:18:12;7.60;;;3.22;;
35971;SDS011;22052;0.000;0.000;2022-12-07T00:20:38;10.00;;;3.38;;
35971;SDS011;22052;0.000;0.000;2022-12-07T00:23:04;6.50;;;2.75;;
35971;SDS011;22052;0.000;0.000;2022-12-07T00:25:30;8.90;;;3.30;;
35971;SDS011;22052;0.000;0.000;2022-12-07T00:27:57;7.88;;;3.08;;
35971;SDS011;22052;0.000;0.000;2022-12-07T00:30:23;10.70;;;3.05;;
35971;SDS011;22052;0.000;0.000;2022-12-07T00:32:49;9.15;;;2.97;;
35971;SDS011;22052;0.000;0.000;2022-12-07T00:35:15;7.47;;;3.00;;
35971;SDS011;22052;0.000;0.000;2022-12-07T00:37:42;9.00;;;2.67;;
35971;SDS011;22052;0.000;0.000;2022-12-07T00:40:08;7.30;;;3.08;;
35971;SDS011;22052;0.000;0.000;2022-12-07T00:42:34;9.02;;;3.03;;
35971;SDS011;22052;0.000;0.000;2022-12-07T00:45:01;8.85;;;3.13;;
35971;SDS011;22052;0.000;0.000;2022-12-07T00:47:27;8.90;;;2.97;;
35971;SDS011;22052;0.000;0.000;2022-12-07T00:49:53;7.78;;;2.72;;
35971;SDS011;22052;0.000;0.000;2022-12-07T00:52:19;7.65;;;2.92;;
35971;SDS011;22052;0.000;0.000;2022-12-07T00:54:45;7.40;;;3.38;;
35971;SDS011;22052;0.000;0.000;2022-12-07T00:57:11;8.98;;;3.03;;
35971;SDS011;22052;0.000;0.000;2022-12-07T00:59:37;8.82;;;3.28;;
35971;SDS011;22052;0.000;0.000;2022-12-07T01:02:04;6.07;;;2.88;;
35971;SDS011;22052;0.000;0.000;2022-12-07T01:04:30;8.50;;;2.72;;
35971;SDS011;22052;0.000;0.000;2022-12-07T01:06:59;7.80;;;2.80;;
35971;SDS011;22052;0.000;0.000;2022-12-07T01:09:25;8.82;;;3.13;;
35971;SDS011;22052;0.000;0.000;2022-12-07T01:11:52;6.47;;;2.60;;
35971;SDS011;22052;0.000;0.000;2022-12-07T01:14:18;7.15;;;2.90;;
35971;SDS011;22052;0.000;0.000;2022-12-07T01:16:44;7.97;;;3.05;;
35971;SDS011;22052;0.000;0.000;2022-12-07T01:19:10;8.00;;;2.80;;
35971;SDS011;22052;0.000;0.000;2022-12-07T01:21:36;6.93;;;3.15;;
35971;SDS011;22052;0.000;0.000;2022-12-07T01:24:05;9.73;;;2.83;;
35971;SDS011;22052;0.000;0.000;2022-12-07T01:26:31;5.53;;;2.72;;
35971;SDS011;22052;0.000;0.000;2022-12-07T01:28:58;6.63;;;2.97;;
35971;SDS011;22052;0.000;0.000;2022-12-07T01:31:26;9.27;;;3.13;;
35971;SDS011;22052;0.000;0.000;2022-12-07T01:33:53;6.32;;;3.00;;
35971;SDS011;22052;0.000;0.000;2022-12-07T01:36:24;6.82;;;3.28;;
35971;SDS011;22052;0.000;0.000;2022-12-07T01:38:52;9.18;;;2.97;;
35971;SDS011;22052;0.000;0.000;2022-12-07T01:41:21;7.22;;;3.25;;
35971;SDS011;22052;0.000;0.000;2022-12-07T01:46:33;6.13;;;2.90;;
35971;SDS011;22052;0.000;0.000;2022-12-07T01:48:59;6.40;;;3.05;;
35971;SDS011;22052;0.000;0.000;2022-12-07T01:51:25;6.35;;;2.40;;
35971;SDS011;22052;0.000;0.000;2022-12-07T01:53:52;9.35;;;3.20;;
35971;SDS011;22052;0.000;0.000;2022-12-07T01:56:19;6.72;;;2.90;;
35971;SDS011;22052;0.000;0.000;2022-12-07T01:58:45;6.95;;;2.97;;
35971;SDS011;22052;0.000;0.000;2022-12-07T02:01:12;5.32;;;2.50;;
35971;SDS011;22052;0.000;0.000;2022-12-07T02:03:41;7.57;;;2.40;;
35971;SDS011;22052;0.000;0.000;2022-12-07T02:06:07;6.20;;;2.55;;
35971;SDS011;22052;0.000;0.000;2022-12-07T02:08:34;5.97;;;2.90;;
35971;SDS011;22052;0.000;0.000;2022-12-07T02:11:01;9.18;;;2.65;;
35971;SDS011;22052;0.000;0.000;2022-12-07T02:13:28;5.38;;;2.40;;
35971;SDS011;22052;0.000;0.000;2022-12-07T02:29:21;4.80;;;2.65;;
35971;SDS011;22052;0.000;0.000;2022-12-07T02:34:31;6.32;;;2.33;;
35971;SDS011;22052;0.000;0.000;2022-12-07T02:37:00;5.22;;;2.58;;
35971;SDS011;22052;0.000;0.000;2022-12-07T02:39:37;6.85;;;2.42;;
35971;SDS011;22052;0.000;0.000;2022-12-07T02:42:07;4.97;;;2.28;;
35971;SDS011;22052;0.000;0.000;2022-12-07T02:44:35;6.03;;;2.72;;
35971;SDS011;22052;0.000;0.000;2022-12-07T02:47:03;7.63;;;2.78;;
35971;SDS011;22052;0.000;0.000;2022-12-07T02:49:31;5.60;;;2.50;;
35971;SDS011;22052;0.000;0.000;2022-12-07T02:51:57;7.10;;;2.70;;
35971;SDS011;22052;0.000;0.000;2022-12-07T02:54:23;6.13;;;2.60;;
35971;SDS011;22052;0.000;0.000;2022-12-07T02:56:52;5.10;;;2.28;;
35971;SDS011;22052;0.000;0.000;2022-12-07T02:59:37;5.80;;;2.67;;
35971;SDS011;22052;0.000;0.000;2022-12-07T03:07:42;4.80;;;2.72;;
35971;SDS011;22052;0.000;0.000;2022-12-07T03:15:13;6.15;;;2.70;;
35971;SDS011;22052;0.000;0.000;2022-12-07T03:17:40;5.35;;;2.75;;
35971;SDS011;22052;0.000;0.000;2022-12-07T03:20:08;4.63;;;2.60;;
35971;SDS011;22052;0.000;0.000;2022-12-07T03:22:36;6.75;;;2.90;;
35971;SDS011;22052;0.000;0.000;2022-12-07T03:25:04;5.18;;;2.38;;
35971;SDS011;22052;0.000;0.000;2022-12-07T03:27:33;5.78;;;2.58;;
35971;SDS011;22052;0.000;0.000;2022-12-07T03:30:19;4.97;;;2.42;;
35971;SDS011;22052;0.000;0.000;2022-12-07T03:38:15;4.60;;;2.17;;
35971;SDS011;22052;0.000;0.000;2022-12-07T03:40:52;5.53;;;2.95;;
35971;SDS011;22052;0.000;0.000;2022-12-07T03:43:20;4.93;;;2.33;;
35971;SDS011;22052;0.000;0.000;2022-12-07T03:45:57;6.85;;;2.70;;
35971;SDS011;22052;0.000;0.000;2022-12-07T03:51:01;5.03;;;2.40;;
35971;SDS011;22052;0.000;0.000;2022-12-07T03:53:36;6.60;;;2.88;;
35971;SDS011;22052;0.000;0.000;2022-12-07T03:56:06;5.03;;;2.60;;
35971;SDS011;22052;0.000;0.000;2022-12-07T03:58:32;6.00;;;2.90;;
35971;SDS011;22052;0.000;0.000;2022-12-07T04:00:59;5.43;;;2.60;;
35971;SDS011;22052;0.000;0.000;2022-12-07T04:03:25;5.45;;;2.30;;
35971;SDS011;22052;0.000;0.000;2022-12-07T04:05:51;5.47;;;2.60;;
35971;SDS011;22052;0.000;0.000;2022-12-07T04:08:17;5.85;;;2.97;;
35971;SDS011;22052;0.000;0.000;2022-12-07T04:10:43;6.72;;;2.90;;
35971;SDS011;22052;0.000;0.000;2022-12-07T04:13:10;5.30;;;2.45;;
35971;SDS011;22052;0.000;0.000;2022-12-07T04:15:36;5.40;;;2.80;;
35971;SDS011;22052;0.000;0.000;2022-12-07T04:18:02;4.78;;;2.75;;
35971;SDS011;22052;0.000;0.000;2022-12-07T04:20:28;6.80;;;2.60;;
35971;SDS011;22052;0.000;0.000;2022-12-07T04:22:54;6.38;;;2.63;;
35971;SDS011;22052;0.000;0.000;2022-12-07T04:25:21;5.40;;;2.58;;
35971;SDS011;22052;0.000;0.000;2022-12-07T04:27:47;5.82;;;2.90;;
35971;SDS011;22052;0.000;0.000;2022-12-07T04:30:13;5.13;;;2.60;;
35971;SDS011;22052;0.000;0.000;2022-12-07T04:32:39;5.47;;;2.80;;
35971;SDS011;22052;0.000;0.000;2022-12-07T04:35:06;5.25;;;2.70;;
35971;SDS011;22052;0.000;0.000;2022-12-07T04:37:32;4.78;;;2.30;;
35971;SDS011;22052;0.000;0.000;2022-12-07T04:39:58;5.53;;;2.70;;
35971;SDS011;22052;0.000;0.000;2022-12-07T04:42:24;4.90;;;2.70;;
35971;SDS011;22052;0.000;0.000;2022-12-07T04:44:51;6.28;;;3.15;;
35971;SDS011;22052;0.000;0.000;2022-12-07T04:47:17;5.68;;;3.00;;
35971;SDS011;22052;0.000;0.000;2022-12-07T04:49:43;6.57;;;2.75;;
35971;SDS011;22052;0.000;0.000;2022-12-07T04:52:09;5.40;;;2.72;;
35971;SDS011;22052;0.000;0.000;2022-12-07T04:54:35;5.40;;;2.70;;
35971;SDS011;22052;0.000;0.000;2022-12-07T04:57:01;5.50;;;2.80;;
35971;SDS011;22052;0.000;0.000;2022-12-07T04:59:28;5.18;;;2.67;;
35971;SDS011;22052;0.000;0.000;2022-12-07T05:01:54;5.20;;;2.42;;
35971;SDS011;22052;0.000;0.000;2022-12-07T05:04:20;5.90;;;2.42;;
35971;SDS011;22052;0.000;0.000;2022-12-07T05:06:46;5.78;;;2.30;;
35971;SDS011;22052;0.000;0.000;2022-12-07T05:09:12;5.22;;;2.50;;
35971;SDS011;22052;0.000;0.000;2022-12-07T05:11:39;5.82;;;2.95;;
35971;SDS011;22052;0.000;0.000;2022-12-07T05:14:06;4.68;;;2.33;;
35971;SDS011;22052;0.000;0.000;2022-12-07T05:16:33;5.28;;;2.58;;
35971;SDS011;22052;0.000;0.000;2022-12-07T05:18:59;7.05;;;2.80;;
35971;SDS011;22052;0.000;0.000;2022-12-07T05:21:25;5.80;;;2.70;;
35971;SDS011;22052;0.000;0.000;2022-12-07T05:23:52;5.07;;;2.67;;
35971;SDS011;22052;0.000;0.000;2022-12-07T05:26:18;5.25;;;2.40;;
35971;SDS011;22052;0.000;0.000;2022-12-07T05:28:44;4.53;;;2.20;;
35971;SDS011;22052;0.000;0.000;2022-12-07T05:31:10;5.35;;;2.65;;
35971;SDS011;22052;0.000;0.000;2022-12-07T05:33:36;5.45;;;2.88;;
35971;SDS011;22052;0.000;0.000;2022-12-07T05:36:03;6.25;;;2.47;;
35971;SDS011;22052;0.000;0.000;2022-12-07T05:38:31;7.68;;;2.60;;
35971;SDS011;22052;0.000;0.000;2022-12-07T05:41:01;5.80;;;2.20;;
35971;SDS011;22052;0.000;0.000;2022-12-07T05:43:28;5.25;;;2.42;;
35971;SDS011;22052;0.000;0.000;2022-12-07T05:45:54;6.57;;;2.40;;
35971;SDS011;22052;0.000;0.000;2022-12-07T05:48:20;7.93;;;2.75;;
35971;SDS011;22052;0.000;0.000;2022-12-07T05:50:49;4.53;;;2.22;;
35971;SDS011;22052;0.000;0.000;2022-12-07T05:53:15;5.63;;;2.47;;
35971;SDS011;22052;0.000;0.000;2022-12-07T05:55:43;5.65;;;2.40;;
35971;SDS011;22052;0.000;0.000;2022-12-07T05:58:09;10.00;;;2.53;;
35971;SDS011;22052;0.000;0.000;2022-12-07T06:00:55;4.50;;;2.15;;
35971;SDS011;22052;0.000;0.000;2022-12-07T06:03:21;7.00;;;2.42;;
35971;SDS011;22052;0.000;0.000;2022-12-07T06:05:47;5.95;;;2.53;;
35971;SDS011;22052;0.000;0.000;2022-12-07T06:08:14;6.75;;;2.75;;
35971;SDS011;22052;0.000;0.000;2022-12-07T06:10:40;5.80;;;2.47;;
35971;SDS011;22052;0.000;0.000;2022-12-07T06:13:07;10.98;;;2.70;;
35971;SDS011;22052;0.000;0.000;2022-12-07T06:15:35;5.18;;;2.53;;
35971;SDS011;22052;0.000;0.000;2022-12-07T06:18:02;6.22;;;2.70;;
35971;SDS011;22052;0.000;0.000;2022-12-07T06:20:28;9.77;;;2.60;;
35971;SDS011;22052;0.000;0.000;2022-12-07T06:22:54;6.65;;;2.75;;
35971;SDS011;22052;0.000;0.000;2022-12-07T06:25:20;5.68;;;2.78;;
35971;SDS011;22052;0.000;0.000;2022-12-07T06:27:47;6.05;;;2.58;;
35971;SDS011;22052;0.000;0.000;2022-12-07T06:30:13;7.03;;;2.78;;
35971;SDS011;22052;0.000;0.000;2022-12-07T06:32:39;7.65;;;2.90;;
35971;SDS011;22052;0.000;0.000;2022-12-07T06:35:05;5.97;;;2.47;;
35971;SDS011;22052;0.000;0.000;2022-12-07T06:37:31;7.68;;;2.97;;
35971;SDS011;22052;0.000;0.000;2022-12-07T06:39:58;8.43;;;2.75;;
35971;SDS011;22052;0.000;0.000;2022-12-07T06:42:24;7.38;;;2.65;;
35971;SDS011;22052;0.000;0.000;2022-12-07T06:44:50;7.32;;;2.80;;
35971;SDS011;22052;0.000;0.000;2022-12-07T06:47:16;5.93;;;2.60;;
35971;SDS011;22052;0.000;0.000;2022-12-07T06:49:42;6.05;;;2.75;;
35971;SDS011;22052;0.000;0.000;2022-12-07T06:52:08;7.47;;;2.58;;
35971;SDS011;22052;0.000;0.000;2022-12-07T06:54:35;7.72;;;2.83;;
35971;SDS011;22052;0.000;0.000;2022-12-07T06:57:01;7.50;;;3.45;;
35971;SDS011;22052;0.000;0.000;2022-12-07T06:59:27;10.00;;;2.88;;
35971;SDS011;22052;0.000;0.000;2022-12-07T07:01:53;9.63;;;2.80;;
35971;SDS011;22052;0.000;0.000;2022-12-07T07:04:19;7.85;;;3.00;;
35971;SDS011;22052;0.000;0.000;2022-12-07T07:06:46;8.05;;;2.80;;
35971;SDS011;22052;0.000;0.000;2022-12-07T07:09:12;9.95;;;2.65;;
35971;SDS011;22052;0.000;0.000;2022-12-07T07:11:38;10.95;;;2.92;;
35971;SDS011;22052;0.000;0.000;2022-12-07T07:14:04;7.93;;;3.05;;
35971;SDS011;22052;0.000;0.000;2022-12-07T07:16:30;7.25;;;2.80;;
35971;SDS011;22052;0.000;0.000;2022-12-07T07:18:57;7.88;;;3.00;;
35971;SDS011;22052;0.000;0.000;2022-12-07T07:21:23;10.40;;;3.15;;
35971;SDS011;22052;0.000;0.000;2022-12-07T07:23:49;8.95;;;3.03;;
35971;SDS011;22052;0.000;0.000;2022-12-07T07:26:15;8.25;;;3.10;;
35971;SDS011;22052;0.000;0.000;2022-12-07T07:28:41;10.55;;;3.28;;
35971;SDS011;22052;0.000;0.000;2022-12-07T07:31:08;8.98;;;3.45;;
35971;SDS011;22052;0.000;0.000;2022-12-07T07:33:34;6.47;;;3.00;;
35971;SDS011;22052;0.000;0.000;2022-12-07T07:36:00;12.25;;;3.60;;
35971;SDS011;22052;0.000;0.000;2022-12-07T07:38:27;7.13;;;2.97;;
35971;SDS011;22052;0.000;0.000;2022-12-07T07:40:53;9.95;;;3.40;;
35971;SDS011;22052;0.000;0.000;2022-12-07T07:43:19;9.50;;;3.10;;
35971;SDS011;22052;0.000;0.000;2022-12-07T07:45:45;7.78;;;3.58;;
35971;SDS011;22052;0.000;0.000;2022-12-07T07:48:12;9.25;;;3.53;;
35971;SDS011;22052;0.000;0.000;2022-12-07T07:50:38;7.18;;;3.00;;
35971;SDS011;22052;0.000;0.000;2022-12-07T07:53:04;8.57;;;3.40;;
35971;SDS011;22052;0.000;0.000;2022-12-07T07:55:30;11.60;;;3.42;;
35971;SDS011;22052;0.000;0.000;2022-12-07T07:57:56;10.02;;;3.25;;
35971;SDS011;22052;0.000;0.000;2022-12-07T08:00:23;10.05;;;3.45;;
35971;SDS011;22052;0.000;0.000;2022-12-07T08:02:49;10.43;;;3.03;;
35971;SDS011;22052;0.000;0.000;2022-12-07T08:05:15;8.30;;;3.13;;
35971;SDS011;22052;0.000;0.000;2022-12-07T08:07:41;9.63;;;2.95;;
35971;SDS011;22052;0.000;0.000;2022-12-07T08:10:09;9.77;;;3.22;;
35971;SDS011;22052;0.000;0.000;2022-12-07T08:12:37;14.23;;;3.13;;
35971;SDS011;22052;0.000;0.000;2022-12-07T08:15:24;7.30;;;3.13;;
35971;SDS011;22052;0.000;0.000;2022-12-07T08:17:50;7.57;;;3.20;;
35971;SDS011;22052;0.000;0.000;2022-12-07T08:20:16;9.35;;;3.25;;
35971;SDS011;22052;0.000;0.000;2022-12-07T08:22:42;8.82;;;3.17;;
35971;SDS011;22052;0.000;0.000;2022-12-07T08:25:08;7.75;;;3.20;;
35971;SDS011;22052;0.000;0.000;2022-12-07T08:27:35;8.70;;;3.10;;
35971;SDS011;22052;0.000;0.000;2022-12-07T08:30:01;8.93;;;3.47;;
35971;SDS011;22052;0.000;0.000;2022-12-07T08:32:27;9.52;;;3.22;;
35971;SDS011;22052;0.000;0.000;2022-12-07T08:34:53;8.85;;;3.03;;
35971;SDS011;22052;0.000;0.000;2022-12-07T08:37:19;10.82;;;3.00;;
35971;SDS011;22052;0.000;0.000;2022-12-07T08:39:45;8.98;;;3.50;;
35971;SDS011;22052;0.000;0.000;2022-12-07T08:42:12;11.13;;;3.17;;
35971;SDS011;22052;0.000;0.000;2022-12-07T08:44:38;9.85;;;3.17;;
35971;SDS011;22052;0.000;0.000;2022-12-07T08:47:05;7.20;;;3.50;;
35971;SDS011;22052;0.000;0.000;2022-12-07T08:49:39;8.57;;;3.15;;
35971;SDS011;22052;0.000;0.000;2022-12-07T08:52:07;7.85;;;3.42;;
35971;SDS011;22052;0.000;0.000;2022-12-07T08:54:34;7.35;;;3.00;;
35971;SDS011;22052;0.000;0.000;2022-12-07T08:57:02;9.57;;;3.03;;
35971;SDS011;22052;0.000;0.000;2022-12-07T08:59:28;11.48;;;3.15;;
35971;SDS011;22052;0.000;0.000;2022-12-07T09:01:55;9.38;;;3.08;;
35971;SDS011;22052;0.000;0.000;2022-12-07T09:04:21;8.38;;;2.85;;
35971;SDS011;22052;0.000;0.000;2022-12-07T09:06:47;9.02;;;3.20;;
35971;SDS011;22052;0.000;0.000;2022-12-07T09:09:14;10.57;;;2.97;;
35971;SDS011;22052;0.000;0.000;2022-12-07T09:11:40;14.95;;;3.58;;
35971;SDS011;22052;0.000;0.000;2022-12-07T09:14:07;9.18;;;3.10;;
35971;SDS011;22052;0.000;0.000;2022-12-07T09:16:33;12.57;;;2.90;;
35971;SDS011;22052;0.000;0.000;2022-12-07T09:18:59;9.38;;;3.45;;
35971;SDS011;22052;0.000;0.000;2022-12-07T09:21:25;6.55;;;2.97;;
35971;SDS011;22052;0.000;0.000;2022-12-07T09:23:52;7.70;;;3.30;;
35971;SDS011;22052;0.000;0.000;2022-12-07T09:26:18;7.20;;;3.30;;
35971;SDS011;22052;0.000;0.000;2022-12-07T09:28:44;9.80;;;3.33;;
35971;SDS011;22052;0.000;0.000;2022-12-07T09:31:10;10.52;;;3.50;;
35971;SDS011;22052;0.000;0.000;2022-12-07T09:33:36;8.55;;;2.90;;
35971;SDS011;22052;0.000;0.000;2022-12-07T09:36:03;7.50;;;3.10;;
35971;SDS011;22052;0.000;0.000;2022-12-07T09:38:30;9.95;;;3.63;;
35971;SDS011;22052;0.000;0.000;2022-12-07T09:40:57;8.18;;;2.90;;
35971;SDS011;22052;0.000;0.000;2022-12-07T09:43:29;9.25;;;2.97;;
35971;SDS011;22052;0.000;0.000;2022-12-07T09:45:55;8.65;;;3.05;;
35971;SDS011;22052;0.000;0.000;2022-12-07T09:48:27;13.68;;;3.75;;
35971;SDS011;22052;0.000;0.000;2022-12-07T09:50:55;12.52;;;3.30;;
35971;SDS011;22052;0.000;0.000;2022-12-07T09:53:36;7.38;;;3.22;;
35971;SDS011;22052;0.000;0.000;2022-12-07T09:56:03;6.45;;;3.03;;
35971;SDS011;22052;0.000;0.000;2022-12-07T09:58:29;10.60;;;3.15;;
35971;SDS011;22052;0.000;0.000;2022-12-07T10:00:57;8.50;;;2.92;;
35971;SDS011;22052;0.000;0.000;2022-12-07T10:03:26;8.90;;;3.00;;
35971;SDS011;22052;0.000;0.000;2022-12-07T10:05:53;10.77;;;3.30;;
35971;SDS011;22052;0.000;0.000;2022-12-07T10:08:20;10.90;;;2.90;;
35971;SDS011;22052;0.000;0.000;2022-12-07T10:10:49;10.27;;;3.15;;
35971;SDS011;22052;0.000;0.000;2022-12-07T10:13:20;9.73;;;3.10;;
35971;SDS011;22052;0.000;0.000;2022-12-07T10:15:53;9.68;;;3.30;;
35971;SDS011;22052;0.000;0.000;2022-12-07T10:18:21;11.10;;;2.92;;
35971;SDS011;22052;0.000;0.000;2022-12-07T10:20:59;8.73;;;2.92;;
35971;SDS011;22052;0.000;0.000;2022-12-07T10:23:26;17.23;;;3.40;;
35971;SDS011;22052;0.000;0.000;2022-12-07T10:25:52;9.55;;;3.00;;
35971;SDS011;22052;0.000;0.000;2022-12-07T10:28:20;9.90;;;3.13;;
35971;SDS011;22052;0.000;0.000;2022-12-07T10:35:57;8.63;;;3.10;;
35971;SDS011;22052;0.000;0.000;2022-12-07T10:38:25;9.05;;;3.20;;
35971;SDS011;22052;0.000;0.000;2022-12-07T10:41:05;12.38;;;3.22;;
35971;SDS011;22052;0.000;0.000;2022-12-07T10:43:32;8.70;;;2.90;;
35971;SDS011;22052;0.000;0.000;2022-12-07T10:48:38;13.77;;;3.13;;
35971;SDS011;22052;0.000;0.000;2022-12-07T10:51:12;8.50;;;2.90;;
35971;SDS011;22052;0.000;0.000;2022-12-07T10:53:48;9.73;;;3.28;;
35971;SDS011;22052;0.000;0.000;2022-12-07T11:01:29;9.88;;;2.85;;
35971;SDS011;22052;0.000;0.000;2022-12-07T11:04:16;9.68;;;3.20;;
35971;SDS011;22052;0.000;0.000;2022-12-07T11:06:52;9.05;;;3.13;;
35971;SDS011;22052;0.000;0.000;2022-12-07T11:12:00;11.32;;;3.10;;
35971;SDS011;22052;0.000;0.000;2022-12-07T11:17:17;11.63;;;3.38;;
35971;SDS011;22052;0.000;0.000;2022-12-07T11:25:13;12.68;;;3.53;;
35971;SDS011;22052;0.000;0.000;2022-12-07T11:30:34;11.60;;;3.33;;
35971;SDS011;22052;0.000;0.000;2022-12-07T11:38:13;10.20;;;2.92;;
35971;SDS011;22052;0.000;0.000;2022-12-07T11:40:41;10.18;;;3.30;;
35971;SDS011;22052;0.000;0.000;2022-12-07T11:43:20;10.43;;;3.50;;
35971;SDS011;22052;0.000;0.000;2022-12-07T11:45:50;12.55;;;3.63;;
35971;SDS011;22052;0.000;0.000;2022-12-07T11:50:57;9.95;;;2.90;;
35971;SDS011;22052;0.000;0.000;2022-12-07T12:03:44;10.10;;;3.22;;
35971;SDS011;22052;0.000;0.000;2022-12-07T12:06:11;10.10;;;3.15;;
35971;SDS011;22052;0.000;0.000;2022-12-07T12:08:45;7.70;;;3.20;;
35971;SDS011;22052;0.000;0.000;2022-12-07T12:21:47;10.07;;;3.53;;
35971;SDS011;22052;0.000;0.000;2022-12-07T12:24:18;8.80;;;3.05;;
35971;SDS011;22052;0.000;0.000;2022-12-07T12:26:51;13.07;;;3.00;;
35971;SDS011;22052;0.000;0.000;2022-12-07T12:29:38;11.88;;;3.25;;
35971;SDS011;22052;0.000;0.000;2022-12-07T12:34:42;10.68;;;3.20;;
35971;SDS011;22052;0.000;0.000;2022-12-07T12:42:46;9.75;;;3.38;;
35971;SDS011;22052;0.000;0.000;2022-12-07T12:47:59;8.13;;;3.20;;
35971;SDS011;22052;0.000;0.000;2022-12-07T12:50:32;13.75;;;3.30;;
35971;SDS011;22052;0.000;0.000;2022-12-07T13:00:46;9.90;;;3.00;;
35971;SDS011;22052;0.000;0.000;2022-12-07T13:03:23;8.40;;;3.22;;
35971;SDS011;22052;0.000;0.000;2022-12-07T13:08:37;10.70;;;3.28;;
35971;SDS011;22052;0.000;0.000;2022-12-07T13:16:46;12.70;;;3.15;;
35971;SDS011;22052;0.000;0.000;2022-12-07T13:21:57;7.88;;;3.13;;
35971;SDS011;22052;0.000;0.000;2022-12-07T13:24:23;12.82;;;3.22;;
35971;SDS011;22052;0.000;0.000;2022-12-07T13:26:51;14.43;;;3.33;;
35971;SDS011;22052;0.000;0.000;2022-12-07T13:29:21;13.93;;;3.28;;
35971;SDS011;22052;0.000;0.000;2022-12-07T13:37:16;12.30;;;3.10;;
35971;SDS011;22052;0.000;0.000;2022-12-07T13:39:47;12.25;;;3.97;;
35971;SDS011;22052;0.000;0.000;2022-12-07T13:42:18;10.10;;;3.15;;
35971;SDS011;22052;0.000;0.000;2022-12-07T13:44:45;13.90;;;3.42;;
35971;SDS011;22052;0.000;0.000;2022-12-07T13:47:20;11.35;;;3.63;;
35971;SDS011;22052;0.000;0.000;2022-12-07T13:49:49;12.45;;;2.83;;
35971;SDS011;22052;0.000;0.000;2022-12-07T13:52:18;9.85;;;3.28;;
35971;SDS011;22052;0.000;0.000;2022-12-07T13:55:27;15.40;;;3.15;;
35971;SDS011;22052;0.000;0.000;2022-12-07T13:57:35;13.57;;;3.40;;
35971;SDS011;22052;0.000;0.000;2022-12-07T14:00:05;8.15;;;3.15;;
35971;SDS011;22052;0.000;0.000;2022-12-07T14:02:33;11.77;;;3.53;;
35971;SDS011;22052;0.000;0.000;2022-12-07T14:05:08;12.43;;;3.10;;
35971;SDS011;22052;0.000;0.000;2022-12-07T14:07:35;8.77;;;3.35;;
35971;SDS011;22052;0.000;0.000;2022-12-07T14:10:03;10.30;;;3.05;;
35971;SDS011;22052;0.000;0.000;2022-12-07T14:12:31;12.70;;;3.72;;
35971;SDS011;22052;0.000;0.000;2022-12-07T14:14:58;11.02;;;3.38;;
35971;SDS011;22052;0.000;0.000;2022-12-07T14:17:27;14.63;;;3.58;;
35971;SDS011;22052;0.000;0.000;2022-12-07T14:19:57;14.50;;;3.28;;
35971;SDS011;22052;0.000;0.000;2022-12-07T14:22:26;10.27;;;3.15;;
35971;SDS011;22052;0.000;0.000;2022-12-07T14:27:38;11.90;;;3.38;;
35971;SDS011;22052;0.000;0.000;2022-12-07T14:30:04;14.55;;;3.42;;
35971;SDS011;22052;0.000;0.000;2022-12-07T14:32:31;9.75;;;2.83;;
35971;SDS011;22052;0.000;0.000;2022-12-07T14:34:58;13.20;;;3.35;;
35971;SDS011;22052;0.000;0.000;2022-12-07T14:37:25;13.32;;;3.67;;
35971;SDS011;22052;0.000;0.000;2022-12-07T14:39:51;16.08;;;3.63;;
35971;SDS011;22052;0.000;0.000;2022-12-07T14:42:17;13.30;;;3.15;;
35971;SDS011;22052;0.000;0.000;2022-12-07T14:44:44;9.27;;;3.25;;
35971;SDS011;22052;0.000;0.000;2022-12-07T14:47:10;11.85;;;3.38;;
35971;SDS011;22052;0.000;0.000;2022-12-07T14:49:36;14.93;;;3.30;;
35971;SDS011;22052;0.000;0.000;2022-12-07T14:52:03;11.73;;;3.55;;
35971;SDS011;22052;0.000;0.000;2022-12-07T14:54:30;11.93;;;3.35;;
35971;SDS011;22052;0.000;0.000;2022-12-07T14:56:57;16.27;;;3.72;;
35971;SDS011;22052;0.000;0.000;2022-12-07T14:59:23;12.05;;;3.75;;
35971;SDS011;22052;0.000;0.000;2022-12-07T15:01:49;15.40;;;3.60;;
35971;SDS011;22052;0.000;0.000;2022-12-07T15:04:16;16.33;;;3.58;;
35971;SDS011;22052;0.000;0.000;2022-12-07T15:06:53;12.15;;;3.70;;
35971;SDS011;22052;0.000;0.000;2022-12-07T15:09:19;14.70;;;4.03;;
35971;SDS011;22052;0.000;0.000;2022-12-07T15:11:46;14.90;;;3.80;;
35971;SDS011;22052;0.000;0.000;2022-12-07T15:14:12;15.70;;;3.35;;
35971;SDS011;22052;0.000;0.000;2022-12-07T15:16:39;16.55;;;4.07;;
35971;SDS011;22052;0.000;0.000;2022-12-07T15:19:08;16.75;;;4.25;;
35971;SDS011;22052;0.000;0.000;2022-12-07T15:21:36;10.90;;;3.83;;
35971;SDS011;22052;0.000;0.000;2022-12-07T15:24:02;11.60;;;4.47;;
35971;SDS011;22052;0.000;0.000;2022-12-07T15:26:28;18.95;;;4.15;;
35971;SDS011;22052;0.000;0.000;2022-12-07T15:28:54;11.80;;;3.53;;
35971;SDS011;22052;0.000;0.000;2022-12-07T15:31:20;16.75;;;3.88;;
35971;SDS011;22052;0.000;0.000;2022-12-07T15:33:47;13.88;;;3.65;;
35971;SDS011;22052;0.000;0.000;2022-12-07T15:36:20;13.75;;;3.83;;
35971;SDS011;22052;0.000;0.000;2022-12-07T15:38:47;12.82;;;4.30;;
35971;SDS011;22052;0.000;0.000;2022-12-07T15:41:13;17.67;;;4.28;;
35971;SDS011;22052;0.000;0.000;2022-12-07T15:43:39;13.68;;;3.88;;
35971;SDS011;22052;0.000;0.000;2022-12-07T15:46:29;13.15;;;3.83;;
35971;SDS011;22052;0.000;0.000;2022-12-07T15:48:55;17.90;;;3.95;;
35971;SDS011;22052;0.000;0.000;2022-12-07T15:51:21;13.70;;;3.88;;
35971;SDS011;22052;0.000;0.000;2022-12-07T15:53:47;16.52;;;3.67;;
35971;SDS011;22052;0.000;0.000;2022-12-07T15:56:14;13.52;;;3.88;;
35971;SDS011;22052;0.000;0.000;2022-12-07T15:58:40;14.70;;;4.30;;
35971;SDS011;22052;0.000;0.000;2022-12-07T16:01:16;11.38;;;3.42;;
35971;SDS011;22052;0.000;0.000;2022-12-07T16:03:43;12.15;;;3.55;;
35971;SDS011;22052;0.000;0.000;2022-12-07T16:06:10;11.82;;;3.08;;
35971;SDS011;22052;0.000;0.000;2022-12-07T16:08:36;16.15;;;4.32;;
35971;SDS011;22052;0.000;0.000;2022-12-07T16:11:05;18.40;;;3.70;;
35971;SDS011;22052;0.000;0.000;2022-12-07T16:13:32;14.05;;;3.75;;
35971;SDS011;22052;0.000;0.000;2022-12-07T16:16:01;12.80;;;3.85;;
35971;SDS011;22052;0.000;0.000;2022-12-07T16:18:27;11.40;;;3.67;;
35971;SDS011;22052;0.000;0.000;2022-12-07T16:20:54;14.85;;;4.10;;
35971;SDS011;22052;0.000;0.000;2022-12-07T16:23:20;12.95;;;4.18;;
35971;SDS011;22052;0.000;0.000;2022-12-07T16:25:46;13.55;;;3.50;;
35971;SDS011;22052;0.000;0.000;2022-12-07T16:28:12;16.27;;;4.43;;
35971;SDS011;22052;0.000;0.000;2022-12-07T16:30:38;17.50;;;3.67;;
35971;SDS011;22052;0.000;0.000;2022-12-07T16:33:04;11.40;;;3.72;;
35971;SDS011;22052;0.000;0.000;2022-12-07T16:35:31;12.60;;;3.72;;
35971;SDS011;22052;0.000;0.000;2022-12-07T16:37:57;10.75;;;3.50;;
35971;SDS011;22052;0.000;0.000;2022-12-07T16:40:23;13.93;;;3.75;;
35971;SDS011;22052;0.000;0.000;2022-12-07T16:42:49;10.65;;;3.47;;
35971;SDS011;22052;0.000;0.000;2022-12-07T16:45:16;13.23;;;3.80;;
35971;SDS011;22052;0.000;0.000;2022-12-07T16:47:42;15.77;;;3.83;;
35971;SDS011;22052;0.000;0.000;2022-12-07T16:50:08;13.02;;;3.35;;
35971;SDS011;22052;0.000;0.000;2022-12-07T16:52:34;11.55;;;3.78;;
35971;SDS011;22052;0.000;0.000;2022-12-07T16:55:00;14.18;;;3.58;;
35971;SDS011;22052;0.000;0.000;2022-12-07T16:57:27;12.82;;;3.45;;
35971;SDS011;22052;0.000;0.000;2022-12-07T16:59:56;12.30;;;3.67;;
35971;SDS011;22052;0.000;0.000;2022-12-07T17:02:22;9.60;;;3.33;;
35971;SDS011;22052;0.000;0.000;2022-12-07T17:04:49;13.75;;;3.88;;
35971;SDS011;22052;0.000;0.000;2022-12-07T17:07:15;11.23;;;3.83;;
35971;SDS011;22052;0.000;0.000;2022-12-07T17:09:42;17.83;;;3.67;;